Solvang, CA

2:34 AM PDT on August 31, 2014 (GMT -0700)
KCASOLVA2 | Change Station
CLOSE
Current Station
Personal Weather Station
Location: Solvang, CA
Elevation: 500 ft
Nearby Weather Stations

Elev 500 ft 34.61 °N, 120.13 °W | Updated 3 seconds ago

Clear
Clear
58.1 °F
Feels Like 58.1 °F
N
0.0
Wind Variable Wind from NNE
Gusts 0.0 mph

Today
High -- | Low -- °F
--% Chance of Precip.
Yesterday
High -- | Low -- °F
Precip. -- in
6:32 AM 7:27 PM
Waxing Crescent, 29% visible
Pressure 29.87 in
Visibility 7.0 miles
Clouds Clear
Dew Point 55 °F
Humidity 89%
Rainfall 0.00 in
Snow Depth Not available.
UV 0 out of 12
Pollen 9.80 out of 12
Ozone Good
PM2.5 Good
Flu Activity Not available.
METAR KIZA 310915Z AUTO 00000KT 7SM CLR 15/12 A2987 RMK AO2

More Conditions Fewer Conditions

Pressure 29.87 in
Visibility 7.0 miles
Clouds Clear
Dew Point 55 °F
Humidity 89%
Rainfall 0.00 in
Snow Depth Not available.
UV 0 out of 12
Pollen 9.80 out of 12
Ozone Good
PM2.5 Good
Flu Activity Not available.
METAR KIZA 310915Z AUTO 00000KT 7SM CLR 15/12 A2987 RMK AO2

More Conditions Fewer Conditions

10-Day Weather Forecast

Almanac

Astronomy

Aug. 31, 2014 Rise Set
Actual Time 6:32 AM PDT 7:27 PM PDT
Civil Twilight 6:07 AM PDT 7:53 PM PDT
Nautical Twilight 5:36 AM PDT 8:24 PM PDT
Astronomical Twilight 5:05 AM PDT 8:55 PM PDT
Moon 12:09 PM PDT 11:02 PM PDT
Length of Visible Light 13h 46m
Length of Day
12h 55m
Tomorrow will be 2m 4s shorter.
Waxing Crescent, 29% of the Moon is Illuminated
Today
Waxing Crescent
Sep 2
First Quarter
Sep 8
Full
Sep 15
Last Quarter
Sep 24
New

Today's Extremes

State Highs State Lows

Community

WunderPhotos

Upload Photos

1,748,834 photos uploaded!

Nearby

Air Quality

  Air Quality AQ Index Pollutant
Yesterday Good
OZONE
Yesterday Good
PM10
Current Good
PM2.5
Current Good
OZONE
Sunday Good
PM2.5
Sunday Good
OZONE

Snow Depth

Station Depth Elevation
Leavitt Lake 0 in 9400 ft
Leavitt Meadows 1 in 7200 ft
Summit Meadow 1 in 9122 ft
Blue Lakes 0 in 8000 ft
Forestdale Creek 0 in 8029 ft

Earthquake Activity

City Distance Mag. Time & Date
Malibu, California 85 miles 2.5 8:11 AM PDT
2014-08-30
Orange Cove, California 145 miles 2.5 7:48 AM PDT
2014-08-29
Minimum magnitude displayed is 2.5.

Coastal Water Temperatures

Place Temperature
Santa Monica Pier 69.1 °F
Los Angeles, CA 66.0 °F
Port San Luis, CA 63.0 °F

Nearby Weather Stations